createdAt,value
2022-08-05T00:06:03.119Z,21.75
2022-08-05T00:11:30.172Z,21.67
2022-08-05T00:17:01.986Z,21.61
2022-08-05T00:22:32.010Z,21.60
2022-08-05T00:28:02.484Z,21.59
2022-08-05T00:34:55.196Z,21.56
2022-08-05T00:39:19.772Z,21.59
2022-08-05T00:44:50.397Z,21.59
2022-08-05T00:50:20.866Z,21.44
2022-08-05T00:55:50.814Z,21.50
2022-08-05T01:01:24.683Z,21.51
2022-08-05T01:07:13.616Z,21.56
2022-08-05T01:13:05.018Z,21.52
2022-08-05T01:18:47.965Z,21.57
2022-08-05T01:24:42.864Z,21.62
2022-08-05T01:30:19.141Z,21.62
2022-08-05T01:36:13.099Z,21.74
2022-08-05T01:41:47.645Z,21.92
2022-08-05T01:47:21.180Z,22.04
2022-08-05T01:52:54.115Z,22.09
2022-08-05T01:58:30.046Z,21.97
2022-08-05T02:04:13.036Z,22.01
2022-08-05T02:09:42.250Z,22.04
2022-08-05T02:15:23.374Z,21.94
2022-08-05T02:20:58.775Z,21.92
2022-08-05T02:26:36.571Z,22.03
2022-08-05T02:32:10.720Z,22.04
2022-08-05T02:37:46.553Z,21.91
2022-08-05T02:43:24.109Z,21.66
2022-08-05T02:48:54.615Z,21.58
2022-08-05T02:54:35.828Z,21.65
2022-08-05T03:00:07.640Z,21.77
2022-08-05T03:06:55.041Z,21.76
2022-08-05T03:11:54.565Z,21.76
2022-08-05T03:17:20.363Z,21.91
2022-08-05T03:22:51.005Z,22.10
2022-08-05T03:28:21.814Z,21.88
2022-08-05T03:33:53.151Z,22.02
2022-08-05T03:39:27.092Z,22.26
2022-08-05T03:44:58.295Z,22.50
2022-08-05T03:50:30.326Z,22.75
2022-08-05T03:56:12.127Z,22.93
2022-08-05T04:01:49.200Z,23.02
2022-08-05T04:07:19.296Z,23.18
2022-08-05T04:12:53.805Z,23.27
2022-08-05T04:18:25.963Z,23.42
2022-08-05T04:24:05.783Z,23.60
2022-08-05T04:29:35.851Z,23.78
2022-08-05T04:35:17.342Z,23.55
2022-08-05T04:40:50.860Z,23.33
2022-08-05T04:46:27.763Z,23.62
2022-08-05T04:52:00.505Z,23.48
2022-08-05T04:57:29.865Z,23.75
2022-08-05T05:03:08.991Z,23.97
2022-08-05T05:08:42.800Z,24.09
2022-08-05T05:14:16.149Z,24.12
2022-08-05T05:19:47.587Z,24.32
2022-08-05T05:25:18.123Z,24.57
2022-08-05T05:30:49.734Z,24.80
2022-08-05T05:36:18.671Z,24.88
2022-08-05T05:41:54.251Z,25.00
2022-08-05T05:47:23.604Z,25.14
2022-08-05T05:52:59.869Z,25.33
2022-08-05T05:58:32.226Z,25.25
2022-08-05T06:04:03.835Z,24.87
2022-08-05T06:10:01.599Z,24.91
2022-08-05T06:15:24.094Z,25.13
2022-08-05T06:20:54.273Z,25.20
2022-08-05T06:26:23.935Z,25.44
2022-08-05T06:31:55.113Z,25.84
2022-08-05T06:37:39.462Z,26.37
2022-08-05T06:43:51.710Z,27.00
2022-08-05T06:49:08.455Z,28.38
2022-08-05T06:54:38.402Z,30.48
2022-08-05T07:00:09.873Z,30.19
2022-08-05T07:05:41.122Z,31.14
2022-08-05T07:11:15.490Z,30.85
2022-08-05T07:17:59.112Z,31.40
2022-08-05T07:22:41.988Z,32.52
2022-08-05T07:28:17.384Z,33.26
2022-08-05T07:33:46.996Z,32.98
2022-08-05T07:39:24.888Z,33.85
2022-08-05T07:45:09.294Z,34.69
2022-08-05T07:50:39.590Z,35.17
2022-08-05T07:57:00.516Z,34.73
2022-08-05T08:02:03.053Z,32.55
2022-08-05T08:07:39.786Z,30.55
2022-08-05T08:13:29.304Z,28.24
2022-08-05T08:18:58.545Z,27.11
2022-08-05T08:24:51.034Z,27.38
2022-08-05T08:30:32.560Z,28.05
2022-08-05T08:36:39.009Z,28.93
2022-08-05T08:42:00.192Z,30.93
2022-08-05T08:48:05.437Z,31.97
2022-08-05T08:53:24.254Z,33.37
2022-08-05T08:58:54.290Z,34.76
2022-08-05T09:04:30.281Z,35.47
2022-08-05T09:09:59.683Z,36.56
2022-08-05T09:15:28.682Z,37.19
2022-08-05T09:21:01.090Z,37.35
2022-08-05T09:26:30.107Z,37.03
2022-08-05T09:32:51.325Z,37.03
2022-08-05T09:38:12.808Z,36.99
2022-08-05T09:43:46.580Z,35.55
2022-08-05T09:49:40.327Z,33.50
2022-08-05T09:55:57.087Z,33.83
2022-08-05T10:01:13.276Z,35.08
2022-08-05T10:06:55.115Z,34.79
2022-08-05T10:12:33.857Z,33.15
2022-08-05T10:18:11.947Z,32.15
2022-08-05T10:23:55.621Z,30.47
2022-08-05T10:30:06.693Z,25.08
2022-08-05T10:35:22.620Z,23.01
2022-08-05T10:41:09.911Z,23.75
2022-08-05T10:46:46.280Z,23.44
2022-08-05T10:52:39.359Z,22.76
2022-08-05T10:58:20.626Z,23.00
2022-08-05T11:04:08.576Z,23.37
2022-08-05T11:09:46.086Z,23.62
2022-08-05T11:15:21.914Z,23.85
2022-08-05T11:20:54.078Z,23.32
2022-08-05T11:26:28.361Z,23.54
2022-08-05T11:32:25.884Z,23.83
2022-08-05T11:38:36.776Z,23.47
2022-08-05T11:44:05.846Z,23.69
2022-08-05T11:49:35.810Z,23.87
2022-08-05T11:55:10.708Z,24.41
2022-08-05T12:00:44.225Z,25.08
2022-08-05T12:06:17.446Z,25.27
2022-08-05T12:11:51.113Z,25.41
2022-08-05T12:18:04.242Z,25.54
2022-08-05T12:23:11.426Z,24.65
2022-08-05T12:28:42.420Z,24.33
2022-08-05T12:34:21.541Z,23.98
2022-08-05T12:39:54.006Z,24.08
2022-08-05T12:45:42.456Z,24.20
2022-08-05T12:52:10.378Z,24.47
2022-08-05T12:57:09.477Z,24.76
2022-08-05T13:02:40.838Z,24.86
2022-08-05T13:08:10.167Z,24.53
2022-08-05T13:14:05.434Z,24.63
2022-08-05T13:19:51.857Z,24.71
2022-08-05T13:25:22.143Z,24.88
2022-08-05T13:31:14.007Z,25.01
2022-08-05T13:36:45.303Z,24.99
2022-08-05T13:42:15.357Z,25.11
2022-08-05T13:48:09.954Z,25.28
2022-08-05T13:53:48.035Z,25.52
2022-08-05T13:59:20.289Z,25.69
2022-08-05T14:05:11.757Z,25.79
2022-08-05T14:10:44.831Z,25.60
2022-08-05T14:16:17.045Z,25.29
2022-08-05T14:22:08.878Z,24.26
2022-08-05T14:27:47.366Z,23.85
2022-08-05T14:33:22.655Z,23.28
2022-08-05T14:38:54.195Z,23.05
2022-08-05T14:44:25.256Z,23.12
2022-08-05T14:50:06.679Z,22.98
2022-08-05T14:55:43.706Z,22.16
2022-08-05T15:01:47.614Z,21.69
2022-08-05T15:08:05.528Z,21.78
2022-08-05T15:13:05.561Z,21.95
2022-08-05T15:18:47.093Z,22.05
2022-08-05T15:24:17.514Z,21.78
2022-08-05T15:29:49.027Z,21.84
2022-08-05T15:35:19.295Z,21.85
2022-08-05T15:41:20.986Z,22.13
2022-08-05T15:46:39.647Z,22.21
2022-08-05T15:52:16.437Z,22.59
2022-08-05T15:57:49.061Z,22.62
2022-08-05T16:03:18.996Z,22.65
2022-08-05T16:08:55.214Z,22.14
2022-08-05T16:14:25.096Z,22.19
2022-08-05T16:20:05.500Z,22.30
2022-08-05T16:25:42.723Z,22.57
2022-08-05T16:31:14.267Z,22.60
2022-08-05T16:36:43.763Z,21.92
2022-08-05T16:42:18.498Z,21.94
2022-08-05T16:47:54.213Z,22.10
2022-08-05T16:54:02.082Z,22.00
2022-08-05T16:59:16.847Z,21.95
2022-08-05T17:04:45.483Z,21.82
2022-08-05T17:10:15.836Z,21.74
2022-08-05T17:15:47.956Z,21.92
2022-08-05T17:21:23.495Z,22.09
2022-08-05T17:26:52.863Z,22.19
2022-08-05T17:32:22.959Z,22.25
2022-08-05T17:38:00.666Z,22.29
2022-08-05T17:43:50.487Z,22.27
2022-08-05T17:49:23.885Z,22.26
2022-08-05T17:54:55.489Z,22.28
2022-08-05T18:00:28.652Z,22.24
2022-08-05T18:06:04.005Z,22.24
2022-08-05T18:11:33.995Z,22.21
2022-08-05T18:17:05.812Z,22.21
2022-08-05T18:22:57.237Z,22.17
2022-08-05T18:28:28.368Z,22.13
2022-08-05T18:33:57.577Z,22.09
2022-08-05T18:40:29.629Z,22.05
2022-08-05T18:45:17.552Z,22.02
2022-08-05T18:52:04.500Z,21.92
2022-08-05T18:56:54.808Z,21.86
2022-08-05T19:02:27.877Z,21.77
2022-08-05T19:08:00.254Z,21.64
2022-08-05T19:13:35.517Z,21.45
2022-08-05T19:19:05.813Z,21.43
2022-08-05T19:24:38.641Z,21.43
2022-08-05T19:30:24.965Z,21.43
2022-08-05T19:35:56.548Z,21.42
2022-08-05T19:42:03.360Z,21.41
2022-08-05T19:47:17.150Z,21.38
2022-08-05T19:52:47.805Z,21.36
2022-08-05T19:58:28.374Z,21.34
2022-08-05T20:04:00.455Z,21.29
2022-08-05T20:09:53.741Z,21.30
2022-08-05T20:15:51.647Z,21.28
2022-08-05T20:21:13.820Z,21.25
2022-08-05T20:26:43.147Z,21.17
2022-08-05T20:32:12.381Z,21.15
2022-08-05T20:38:05.985Z,21.16
2022-08-05T20:43:57.707Z,21.15
2022-08-05T20:49:24.529Z,21.11
2022-08-05T20:54:59.832Z,21.11
2022-08-05T21:00:54.511Z,21.12
2022-08-05T21:06:28.535Z,21.17
2022-08-05T21:12:10.242Z,21.18
2022-08-05T21:17:40.914Z,21.15
2022-08-05T21:23:12.815Z,21.07
2022-08-05T21:28:47.623Z,21.06
2022-08-05T21:34:20.469Z,21.04
2022-08-05T21:39:51.491Z,21.00
2022-08-05T21:45:24.482Z,20.91
2022-08-05T21:50:55.651Z,20.88
2022-08-05T21:56:26.902Z,20.76
2022-08-05T22:01:56.892Z,20.78
2022-08-05T22:07:54.461Z,20.81
2022-08-05T22:14:32.955Z,20.77
2022-08-05T22:19:15.065Z,20.76
2022-08-05T22:25:20.897Z,20.74
2022-08-05T22:30:57.906Z,20.78
2022-08-05T22:36:31.046Z,20.80
2022-08-05T22:42:11.313Z,20.82
2022-08-05T22:47:49.855Z,20.86
2022-08-05T22:53:25.617Z,20.91
2022-08-05T22:59:43.622Z,20.92
2022-08-05T23:04:53.602Z,20.90
2022-08-05T23:10:25.673Z,20.89
2022-08-05T23:15:54.315Z,20.89
2022-08-05T23:21:24.128Z,20.91
2022-08-05T23:27:12.585Z,20.91
2022-08-05T23:32:45.238Z,20.89
2022-08-05T23:38:14.774Z,20.86
2022-08-05T23:44:06.347Z,20.81
2022-08-05T23:49:37.253Z,20.81
2022-08-05T23:55:10.048Z,20.83
